createdAt,value
2022-12-17T00:01:55.094Z,42.05
2022-12-17T00:04:42.776Z,39.50
2022-12-17T00:07:35.415Z,39.90
2022-12-17T00:10:20.905Z,41.60
2022-12-17T00:13:06.980Z,50.53
2022-12-17T00:15:53.333Z,46.58
2022-12-17T00:18:39.692Z,46.20
2022-12-17T00:21:26.030Z,43.72
2022-12-17T00:24:20.360Z,42.25
2022-12-17T00:27:06.784Z,43.08
2022-12-17T00:29:52.456Z,44.72
2022-12-17T00:32:37.914Z,41.90
2022-12-17T00:35:25.540Z,44.67
2022-12-17T00:38:11.136Z,45.50
2022-12-17T00:40:57.079Z,41.28
2022-12-17T00:43:44.057Z,44.47
2022-12-17T00:46:30.037Z,43.15
2022-12-17T00:49:16.110Z,42.83
2022-12-17T00:52:01.900Z,45.42
2022-12-17T00:54:47.515Z,43.47
2022-12-17T00:57:33.103Z,42.35
2022-12-17T01:00:19.754Z,37.78
2022-12-17T01:03:08.798Z,43.17
2022-12-17T01:05:54.224Z,41.95
2022-12-17T01:08:41.484Z,44.30
2022-12-17T01:11:27.676Z,44.38
2022-12-17T01:14:13.046Z,42.75
2022-12-17T01:16:59.871Z,43.42
2022-12-17T01:19:45.417Z,46.50
2022-12-17T01:22:33.811Z,42.67
2022-12-17T01:25:19.308Z,43.90
2022-12-17T01:28:09.339Z,48.05
2022-12-17T01:30:59.932Z,46.50
2022-12-17T01:33:46.679Z,41.13
2022-12-17T01:36:34.649Z,45.33
2022-12-17T01:39:20.732Z,43.90
2022-12-17T01:42:06.094Z,43.95
2022-12-17T01:44:57.904Z,43.10
2022-12-17T01:47:51.915Z,44.70
2022-12-17T01:50:39.988Z,44.17
2022-12-17T01:53:26.747Z,44.83
2022-12-17T01:56:12.681Z,41.10
2022-12-17T01:58:59.552Z,42.85
2022-12-17T02:01:45.393Z,43.45
2022-12-17T02:04:42.883Z,46.13
2022-12-17T02:08:04.659Z,45.05
2022-12-17T02:11:32.435Z,44.13
2022-12-17T02:14:34.533Z,45.33
2022-12-17T02:17:26.086Z,42.70
2022-12-17T02:20:36.143Z,31.75
2022-12-17T02:23:46.824Z,44.42
2022-12-17T02:26:54.400Z,44.60
2022-12-17T02:29:45.932Z,40.10
2022-12-17T02:32:43.837Z,39.75
2022-12-17T02:35:38.791Z,40.97
2022-12-17T02:38:45.349Z,39.63
2022-12-17T02:41:47.747Z,41.15
2022-12-17T02:44:40.856Z,43.20
2022-12-17T02:50:14.990Z,37.58
2022-12-17T02:53:08.860Z,46.28
2022-12-17T02:55:55.886Z,41.28
2022-12-17T02:59:15.071Z,49.53
2022-12-17T03:02:03.173Z,59.30
2022-12-17T03:04:50.888Z,47.55
2022-12-17T03:07:36.591Z,46.03
2022-12-17T03:10:22.637Z,42.70
2022-12-17T03:13:10.655Z,40.80
2022-12-17T03:15:56.083Z,37.97
2022-12-17T03:18:41.600Z,37.72
2022-12-17T03:21:27.223Z,37.88
2022-12-17T03:24:12.595Z,36.67
2022-12-17T03:26:58.165Z,35.95
2022-12-17T03:30:02.763Z,34.03
2022-12-17T03:33:14.690Z,32.38
2022-12-17T03:36:00.479Z,32.88
2022-12-17T03:38:45.821Z,31.23
2022-12-17T03:41:32.563Z,29.42
2022-12-17T03:44:20.668Z,28.92
2022-12-17T03:47:11.125Z,31.75
2022-12-17T03:49:56.888Z,29.58
2022-12-17T03:52:43.427Z,29.63
2022-12-17T03:55:30.043Z,29.00
2022-12-17T03:58:18.117Z,27.77
2022-12-17T04:01:15.347Z,28.80
2022-12-17T04:05:00.031Z,28.85
2022-12-17T04:07:24.445Z,26.90
2022-12-17T04:10:11.970Z,27.83
2022-12-17T04:12:57.970Z,28.08
2022-12-17T04:15:44.887Z,28.70
2022-12-17T04:18:30.409Z,27.40
2022-12-17T04:21:16.225Z,26.55
2022-12-17T04:24:01.934Z,36.28
2022-12-17T04:26:49.914Z,32.83
2022-12-17T04:29:37.137Z,28.52
2022-12-17T04:32:23.305Z,26.83
2022-12-17T04:35:08.803Z,27.55
2022-12-17T04:37:55.554Z,26.65
2022-12-17T04:40:41.615Z,26.33
2022-12-17T04:43:30.073Z,27.95
2022-12-17T04:46:26.236Z,28.40
2022-12-17T04:49:46.772Z,28.00
2022-12-17T04:52:33.072Z,27.52
2022-12-17T04:55:18.874Z,28.67
2022-12-17T04:58:07.877Z,26.95
2022-12-17T05:00:54.150Z,27.02
2022-12-17T05:03:41.008Z,25.20
2022-12-17T05:06:28.245Z,25.35
2022-12-17T05:09:15.486Z,27.55
2022-12-17T05:12:00.984Z,28.42
2022-12-17T05:14:46.734Z,27.23
2022-12-17T05:17:32.277Z,26.50
2022-12-17T05:20:45.326Z,24.48
2022-12-17T05:23:31.140Z,24.48
2022-12-17T05:26:44.753Z,26.48
2022-12-17T05:29:31.824Z,26.08
2022-12-17T05:32:17.789Z,26.30
2022-12-17T05:35:04.302Z,24.83
2022-12-17T05:37:50.762Z,26.42
2022-12-17T05:40:36.238Z,28.35
2022-12-17T05:43:49.744Z,27.50
2022-12-17T05:46:35.334Z,28.08
2022-12-17T05:49:20.769Z,28.05
2022-12-17T05:52:06.142Z,28.42
2022-12-17T05:54:58.182Z,29.23
2022-12-17T05:57:43.755Z,27.92
2022-12-17T06:00:29.847Z,27.27
2022-12-17T06:03:17.819Z,26.45
2022-12-17T06:06:03.574Z,28.38
2022-12-17T06:08:49.112Z,24.63
2022-12-17T06:11:35.301Z,26.77
2022-12-17T06:14:22.157Z,26.50
2022-12-17T06:17:07.655Z,26.42
2022-12-17T06:23:29.885Z,23.27
2022-12-17T06:26:16.070Z,22.75
2022-12-17T06:29:02.541Z,22.25
2022-12-17T06:31:48.245Z,21.38
2022-12-17T06:34:33.691Z,28.73
2022-12-17T06:37:19.240Z,43.35
2022-12-17T06:40:04.867Z,26.45
2022-12-17T06:42:50.413Z,22.13
2022-12-17T06:45:44.548Z,20.67
2022-12-17T06:48:30.012Z,20.45
2022-12-17T06:51:15.605Z,28.08
2022-12-17T06:54:01.036Z,22.00
2022-12-17T06:56:50.781Z,22.15
2022-12-17T06:59:36.370Z,20.35
2022-12-17T07:02:21.903Z,18.95
2022-12-17T07:05:07.461Z,17.38
2022-12-17T07:07:53.023Z,16.65
2022-12-17T07:10:39.980Z,16.70
2022-12-17T07:13:28.300Z,18.40
2022-12-17T07:16:14.288Z,18.63
2022-12-17T07:19:00.741Z,20.00
2022-12-17T07:24:44.109Z,17.65
2022-12-17T07:30:55.870Z,19.08
2022-12-17T07:33:46.440Z,18.80
2022-12-17T07:39:44.879Z,17.58
2022-12-17T07:42:37.354Z,19.35
2022-12-17T07:45:33.698Z,18.20
2022-12-17T07:48:32.590Z,16.88
2022-12-17T07:51:18.176Z,16.77
2022-12-17T07:54:08.581Z,18.88
2022-12-17T07:57:01.740Z,17.00
2022-12-17T07:59:54.760Z,17.52
2022-12-17T08:02:44.767Z,18.55
2022-12-17T08:05:38.553Z,18.98
2022-12-17T08:08:34.767Z,19.38
2022-12-17T08:11:27.379Z,18.80
2022-12-17T08:14:38.936Z,17.42
2022-12-17T08:17:24.178Z,17.45
2022-12-17T08:20:12.781Z,22.77
2022-12-17T08:26:02.872Z,29.77
2022-12-17T08:32:08.044Z,28.98
2022-12-17T08:39:15.481Z,23.67
2022-12-17T08:42:12.377Z,30.33
2022-12-17T09:00:36.073Z,23.20
2022-12-17T09:14:08.915Z,23.88
2022-12-17T09:16:57.025Z,25.17
2022-12-17T09:19:42.481Z,23.80
2022-12-17T09:22:28.934Z,24.27
2022-12-17T09:25:15.642Z,23.30
2022-12-17T09:31:37.307Z,23.08
2022-12-17T09:34:43.151Z,22.13
2022-12-17T09:37:39.557Z,22.30
2022-12-17T09:40:43.226Z,22.45
2022-12-17T09:47:50.236Z,24.05
2022-12-17T09:57:20.162Z,23.48
2022-12-17T10:00:09.351Z,24.67
2022-12-17T10:02:58.698Z,24.50
2022-12-17T10:05:48.140Z,24.17
2022-12-17T10:15:42.059Z,23.70
2022-12-17T10:29:17.565Z,27.67
2022-12-17T11:21:09.602Z,31.48
2022-12-17T11:24:08.565Z,32.22
2022-12-17T11:27:07.393Z,32.17
2022-12-17T11:34:38.970Z,28.00
2022-12-17T11:47:09.767Z,8.45
2022-12-17T12:34:47.482Z,1.00
2022-12-17T12:37:39.398Z,0.55
2022-12-17T12:40:54.786Z,0.90
2022-12-17T12:43:56.637Z,0.77
2022-12-17T12:47:07.285Z,0.82
2022-12-17T12:50:13.344Z,0.80
2022-12-17T12:53:03.543Z,0.88
2022-12-17T12:56:02.073Z,1.00
2022-12-17T13:05:16.234Z,1.58
2022-12-17T13:07:56.323Z,1.52
2022-12-17T13:10:42.462Z,2.00
2022-12-17T13:13:31.731Z,1.55
2022-12-17T13:16:38.395Z,1.95
2022-12-17T13:19:38.510Z,1.60
2022-12-17T13:22:24.088Z,1.30
2022-12-17T13:25:18.029Z,1.20
2022-12-17T13:27:45.733Z,1.05
2022-12-17T13:30:24.561Z,0.80
2022-12-17T13:33:25.858Z,1.30
2022-12-17T13:36:28.298Z,1.50
2022-12-17T13:39:16.981Z,1.70
2022-12-17T13:41:47.494Z,1.48
2022-12-17T13:44:29.741Z,1.42
2022-12-17T13:47:02.072Z,1.52
2022-12-17T13:49:32.377Z,1.75
2022-12-17T13:52:11.564Z,1.92
2022-12-17T13:54:39.574Z,1.48
2022-12-17T13:57:34.367Z,1.60
2022-12-17T14:00:06.373Z,1.50
2022-12-17T14:02:55.540Z,1.63
2022-12-17T14:05:48.900Z,1.60
2022-12-17T14:08:19.539Z,1.88
2022-12-17T14:11:18.264Z,1.25
2022-12-17T14:13:48.512Z,1.92
2022-12-17T14:16:18.045Z,1.67
2022-12-17T14:18:54.320Z,1.60
2022-12-17T14:21:28.353Z,1.70
2022-12-17T14:23:58.901Z,1.38
2022-12-17T14:26:29.473Z,1.65
2022-12-17T14:29:02.775Z,1.80
2022-12-17T14:31:37.311Z,1.30
2022-12-17T14:34:11.828Z,1.92
2022-12-17T14:36:45.076Z,1.65
2022-12-17T14:39:28.297Z,1.63
2022-12-17T14:42:25.891Z,1.70
2022-12-17T14:45:19.345Z,1.58
2022-12-17T14:47:59.785Z,2.00
2022-12-17T14:50:33.380Z,2.60
2022-12-17T14:53:32.045Z,1.88
2022-12-17T14:56:04.523Z,1.42
2022-12-17T14:58:46.227Z,1.60
2022-12-17T15:01:14.488Z,1.60
2022-12-17T15:03:46.641Z,1.80
2022-12-17T15:06:18.840Z,2.10
2022-12-17T15:08:49.663Z,1.73
2022-12-17T15:11:21.127Z,1.80
2022-12-17T15:13:54.426Z,2.00
2022-12-17T15:16:24.498Z,2.17
2022-12-17T15:18:51.457Z,1.95
2022-12-17T15:21:23.058Z,2.15
2022-12-17T15:23:53.646Z,2.40
2022-12-17T15:26:24.665Z,2.17
2022-12-17T15:28:55.921Z,2.80
2022-12-17T15:31:35.787Z,2.50
2022-12-17T15:34:07.083Z,2.65
2022-12-17T15:36:40.399Z,2.30
2022-12-17T15:39:15.275Z,2.67
2022-12-17T15:42:06.690Z,2.93
2022-12-17T15:45:16.156Z,2.72
2022-12-17T15:48:49.672Z,2.88
2022-12-17T15:52:36.725Z,3.17
2022-12-17T15:55:34.326Z,3.15
2022-12-17T15:58:02.951Z,3.22
2022-12-17T16:00:32.257Z,3.60
2022-12-17T16:06:35.830Z,3.55
2022-12-17T16:09:09.637Z,3.88
2022-12-17T16:11:38.528Z,4.03
2022-12-17T16:14:08.102Z,4.40
2022-12-17T16:16:38.953Z,3.60
2022-12-17T16:19:15.409Z,4.20
2022-12-17T16:21:46.970Z,4.28
2022-12-17T16:24:19.387Z,3.60
2022-12-17T16:26:48.923Z,4.78
2022-12-17T16:29:24.207Z,6.63
2022-12-17T16:31:52.707Z,5.75
2022-12-17T16:34:21.361Z,6.40
2022-12-17T16:36:53.557Z,6.50
2022-12-17T16:39:22.528Z,6.88
2022-12-17T16:41:49.721Z,6.60
2022-12-17T16:44:21.235Z,6.53
2022-12-17T16:46:49.886Z,6.15
2022-12-17T16:49:34.601Z,6.60
2022-12-17T16:52:06.590Z,6.15
2022-12-17T16:54:39.457Z,6.10
2022-12-17T16:57:08.172Z,5.45
2022-12-17T16:59:54.867Z,5.63
2022-12-17T17:03:09.894Z,6.28
2022-12-17T17:06:22.717Z,7.75
2022-12-17T17:15:59.096Z,6.25
2022-12-17T17:22:16.718Z,10.73
2022-12-17T17:28:59.798Z,11.63
2022-12-17T17:32:08.617Z,11.77
2022-12-17T17:34:47.899Z,9.55
2022-12-17T17:37:17.524Z,10.68
2022-12-17T17:40:01.775Z,9.63
2022-12-17T18:14:08.758Z,13.02
2022-12-17T18:30:23.002Z,10.70
2022-12-17T18:33:01.050Z,12.65
2022-12-17T18:36:01.435Z,13.88
2022-12-17T18:38:32.646Z,13.95
2022-12-17T18:41:38.328Z,16.25
2022-12-17T18:44:26.823Z,14.43
2022-12-17T18:46:55.879Z,9.73
2022-12-17T18:49:27.010Z,11.80
2022-12-17T18:51:55.747Z,12.68
2022-12-17T18:57:14.915Z,11.15
2022-12-17T18:59:41.899Z,10.10
2022-12-17T19:02:17.414Z,10.80
2022-12-17T19:04:44.650Z,14.00
2022-12-17T19:07:12.997Z,12.77
2022-12-17T19:09:40.593Z,29.58
2022-12-17T19:12:10.201Z,37.92
2022-12-17T19:14:37.320Z,31.92
2022-12-17T19:17:05.992Z,25.65
2022-12-17T19:19:41.892Z,18.92
2022-12-17T19:22:50.875Z,20.70
2022-12-17T19:25:43.737Z,12.27
2022-12-17T19:28:35.750Z,14.93
2022-12-17T19:31:06.023Z,17.35
2022-12-17T19:33:39.359Z,19.67
2022-12-17T19:36:26.713Z,13.77
2022-12-17T19:39:00.226Z,12.77
2022-12-17T19:41:29.793Z,10.95
2022-12-17T19:43:59.847Z,12.15
2022-12-17T19:46:33.812Z,15.52
2022-12-17T19:49:06.071Z,14.75
2022-12-17T19:51:36.040Z,10.80
2022-12-17T19:54:08.529Z,12.82
2022-12-17T19:56:41.116Z,12.93
2022-12-17T19:59:19.602Z,14.20
2022-12-17T20:02:02.439Z,14.90
2022-12-17T20:04:35.753Z,16.02
2022-12-17T20:07:11.904Z,13.30
2022-12-17T20:09:50.056Z,20.27
2022-12-17T20:12:20.712Z,10.40
2022-12-17T20:15:04.705Z,11.60
2022-12-17T20:17:38.638Z,11.45
2022-12-17T20:20:06.437Z,12.52
2022-12-17T20:22:39.206Z,15.02
2022-12-17T20:25:09.513Z,13.63
2022-12-17T20:27:38.463Z,13.63
2022-12-17T20:30:13.948Z,20.02
2022-12-17T20:32:54.200Z,16.08
2022-12-17T20:35:24.772Z,15.38
2022-12-17T20:38:03.016Z,16.45
2022-12-17T20:40:30.179Z,13.38
2022-12-17T20:43:09.718Z,13.75
2022-12-17T20:45:42.895Z,16.08
2022-12-17T20:48:41.662Z,15.48
2022-12-17T20:51:27.732Z,14.82
2022-12-17T20:53:56.300Z,18.55
2022-12-17T20:56:26.232Z,18.63
2022-12-17T20:58:58.542Z,16.58
2022-12-17T21:01:28.523Z,14.98
2022-12-17T21:03:57.342Z,15.13
2022-12-17T21:06:28.588Z,12.88
2022-12-17T21:08:56.394Z,8.70
2022-12-17T21:11:26.389Z,11.32
2022-12-17T21:13:54.581Z,10.77
2022-12-17T21:16:26.673Z,9.02
2022-12-17T21:18:55.109Z,9.93
2022-12-17T21:21:24.803Z,9.30
2022-12-17T21:24:24.648Z,8.85
2022-12-17T21:26:51.757Z,8.90
2022-12-17T21:29:19.187Z,8.40
2022-12-17T21:31:57.671Z,8.30
2022-12-17T21:34:29.884Z,7.15
2022-12-17T21:36:57.169Z,7.50
2022-12-17T21:39:25.744Z,8.23
2022-12-17T21:42:13.904Z,8.10
2022-12-17T21:44:41.168Z,14.43
2022-12-17T21:47:08.398Z,11.10
2022-12-17T21:49:36.643Z,9.77
2022-12-17T21:52:20.142Z,7.97
2022-12-17T21:54:47.426Z,7.95
2022-12-17T21:57:15.264Z,8.70
2022-12-17T21:59:43.967Z,9.63
2022-12-17T22:02:13.565Z,8.98
2022-12-17T22:04:40.941Z,8.98
2022-12-17T22:07:27.190Z,8.50
2022-12-17T22:10:29.820Z,8.85
2022-12-17T22:13:24.337Z,8.05
2022-12-17T22:15:56.617Z,8.43
2022-12-17T22:18:27.613Z,9.55
2022-12-17T22:21:02.496Z,8.35
2022-12-17T22:23:30.252Z,7.20
2022-12-17T22:25:59.019Z,6.57
2022-12-17T22:28:26.232Z,8.85
2022-12-17T22:31:11.747Z,9.00
2022-12-17T22:34:39.360Z,9.55
2022-12-17T22:38:41.694Z,7.00
2022-12-17T22:43:30.922Z,6.80
2022-12-17T22:44:36.108Z,6.10
2022-12-17T22:45:13.077Z,6.28
2022-12-17T22:47:40.728Z,5.90
2022-12-17T22:50:12.299Z,6.63
2022-12-17T22:52:39.911Z,6.68
2022-12-17T22:55:08.084Z,6.32
2022-12-17T22:57:39.003Z,7.57
2022-12-17T23:00:24.346Z,5.72
2022-12-17T23:02:57.810Z,7.40
2022-12-17T23:05:29.445Z,7.47
2022-12-17T23:08:03.402Z,7.10
2022-12-17T23:10:30.913Z,6.70
2022-12-17T23:12:59.344Z,8.77
2022-12-17T23:15:38.766Z,6.20
2022-12-17T23:18:09.759Z,6.13
2022-12-17T23:20:37.999Z,5.35
2022-12-17T23:23:08.521Z,5.75
2022-12-17T23:25:38.598Z,6.55
2022-12-17T23:28:05.982Z,6.53
2022-12-17T23:30:38.202Z,5.68
2022-12-17T23:33:07.052Z,5.70
2022-12-17T23:35:34.405Z,8.75
2022-12-17T23:38:03.566Z,8.93
2022-12-17T23:40:31.912Z,8.32
2022-12-17T23:43:00.731Z,6.82
2022-12-17T23:45:31.741Z,6.70
2022-12-17T23:48:13.643Z,6.70
2022-12-17T23:50:46.802Z,6.15
2022-12-17T23:53:18.947Z,6.50
2022-12-17T23:55:45.994Z,6.72
2022-12-17T23:58:15.785Z,7.75
